createdAt,value
2023-05-15T00:13:03.805Z,12.23
2023-05-15T00:23:05.394Z,13.05
2023-05-15T00:33:07.304Z,13.38
2023-05-15T00:43:11.048Z,13.53
2023-05-15T00:53:12.746Z,14.37
2023-05-15T01:03:14.411Z,14.98
2023-05-15T01:13:16.153Z,15.47
2023-05-15T01:23:26.251Z,13.63
2023-05-15T01:33:35.760Z,14.35
2023-05-15T01:43:41.577Z,14.87
2023-05-15T01:53:45.333Z,15.57
2023-05-15T02:03:47.654Z,16.60
2023-05-15T02:13:50.370Z,14.82
2023-05-15T02:23:51.851Z,14.67
2023-05-15T02:34:03.802Z,14.23
2023-05-15T02:44:06.144Z,14.40
2023-05-15T02:54:09.502Z,15.23
2023-05-15T03:04:10.936Z,16.20
2023-05-15T03:14:12.356Z,15.38
2023-05-15T03:24:13.869Z,14.80
2023-05-15T03:34:15.375Z,15.47
2023-05-15T03:44:17.012Z,14.65
2023-05-15T03:54:18.559Z,14.98
2023-05-15T04:04:20.044Z,17.23
2023-05-15T04:14:22.334Z,17.43
2023-05-15T04:24:23.681Z,18.35
2023-05-15T04:34:25.348Z,16.43
2023-05-15T04:44:26.821Z,16.57
2023-05-15T04:54:28.330Z,17.58
2023-05-15T05:04:29.704Z,16.47
2023-05-15T05:14:31.837Z,15.80
2023-05-15T05:24:35.714Z,16.45
2023-05-15T05:34:37.220Z,15.90
2023-05-15T05:44:38.693Z,14.03
2023-05-15T05:54:40.124Z,15.93
2023-05-15T06:04:41.518Z,13.50
2023-05-15T06:14:42.975Z,12.83
2023-05-15T06:24:44.411Z,14.03
2023-05-15T06:34:45.772Z,13.30
2023-05-15T06:44:49.623Z,12.20
2023-05-15T06:54:52.040Z,11.30
2023-05-15T07:04:53.604Z,12.27
2023-05-15T07:14:54.970Z,12.90
2023-05-15T07:24:56.477Z,11.83
2023-05-15T07:34:57.918Z,11.90
2023-05-15T07:44:59.463Z,13.48
2023-05-15T07:55:01.349Z,13.73
2023-05-15T08:05:02.955Z,14.00
2023-05-15T08:15:04.581Z,11.43
2023-05-15T08:25:06.989Z,9.93
2023-05-15T08:35:08.571Z,11.67
2023-05-15T08:45:10.530Z,11.68
2023-05-15T08:55:12.345Z,10.98
2023-05-15T09:05:13.768Z,10.73
2023-05-15T09:15:17.812Z,10.30
2023-05-15T09:25:38.239Z,10.05
2023-05-15T09:35:40.944Z,9.73
2023-05-15T09:45:43.163Z,9.60
2023-05-15T09:55:45.233Z,10.20
2023-05-15T10:05:47.042Z,9.37
2023-05-15T10:15:49.657Z,9.00
2023-05-15T10:26:00.732Z,9.38
2023-05-15T10:36:04.348Z,7.50
2023-05-15T10:46:06.754Z,7.80
2023-05-15T10:56:13.263Z,7.57
2023-05-15T11:06:14.790Z,5.85
2023-05-15T11:16:54.128Z,5.73
2023-05-15T11:27:03.609Z,8.30
2023-05-15T11:37:17.292Z,8.57
2023-05-15T11:47:18.804Z,8.17
2023-05-15T11:57:20.657Z,9.03
2023-05-15T12:07:22.299Z,9.85
2023-05-15T12:17:24.391Z,11.07
2023-05-15T12:27:26.494Z,10.13
2023-05-15T12:37:31.027Z,11.67
2023-05-15T12:47:32.469Z,10.77
2023-05-15T12:57:36.082Z,12.30
2023-05-15T13:07:41.627Z,12.07
2023-05-15T13:17:43.045Z,13.60
2023-05-15T13:27:45.104Z,16.00
2023-05-15T13:37:47.159Z,14.00
2023-05-15T13:47:48.687Z,14.52
2023-05-15T13:57:51.336Z,12.87
2023-05-15T14:07:52.958Z,10.73
2023-05-15T14:17:54.442Z,11.10
2023-05-15T14:27:55.936Z,10.80
2023-05-15T14:37:57.416Z,9.47
2023-05-15T14:47:58.953Z,12.77
2023-05-15T14:58:00.367Z,10.20
2023-05-15T15:08:05.484Z,10.20
2023-05-15T15:18:07.842Z,12.67
2023-05-15T15:28:09.618Z,12.57
2023-05-15T15:38:13.294Z,12.60
2023-05-15T15:48:14.908Z,13.10
2023-05-15T15:58:16.480Z,13.50
2023-05-15T16:08:17.947Z,12.30
2023-05-15T16:18:19.517Z,11.97
2023-05-15T16:28:21.128Z,10.10
2023-05-15T16:38:23.207Z,10.32
2023-05-15T16:48:27.268Z,11.33
2023-05-15T16:58:28.786Z,11.53
2023-05-15T17:08:30.310Z,10.63
2023-05-15T17:18:31.692Z,10.93
2023-05-15T17:28:33.082Z,10.47
2023-05-15T17:38:34.630Z,10.50
2023-05-15T17:48:36.102Z,10.82
2023-05-15T17:58:37.673Z,10.77
2023-05-15T18:08:40.148Z,10.67
2023-05-15T18:18:42.477Z,10.13
2023-05-15T18:28:44.135Z,8.53
2023-05-15T18:38:45.996Z,9.33
2023-05-15T18:48:47.620Z,9.82
2023-05-15T18:58:49.162Z,9.35
2023-05-15T19:08:50.784Z,8.90
2023-05-15T19:18:52.383Z,7.30
2023-05-15T19:28:54.304Z,6.57
2023-05-15T19:38:56.007Z,5.37
2023-05-15T19:48:57.846Z,6.47
2023-05-15T19:59:00.468Z,5.45
2023-05-15T20:09:01.944Z,5.50
2023-05-15T20:19:04.145Z,5.63
2023-05-15T20:29:05.749Z,5.38
2023-05-15T20:39:07.352Z,5.00
2023-05-15T20:49:09.061Z,4.17
2023-05-15T20:59:10.726Z,5.57
2023-05-15T21:09:14.154Z,3.88
2023-05-15T21:19:15.889Z,4.33
2023-05-15T21:29:17.464Z,3.83
2023-05-15T21:39:19.049Z,4.30
2023-05-15T21:49:20.478Z,4.37
2023-05-15T21:59:21.997Z,3.37
2023-05-15T22:09:23.492Z,3.47
2023-05-15T22:19:33.039Z,3.83
2023-05-15T22:29:35.049Z,4.33
2023-05-15T22:39:36.867Z,3.93
2023-05-15T22:49:38.262Z,5.72
2023-05-15T22:59:39.748Z,6.00
2023-05-15T23:09:41.298Z,3.07
2023-05-15T23:19:42.798Z,5.47
2023-05-15T23:29:44.182Z,3.47
2023-05-15T23:39:45.676Z,3.37
2023-05-15T23:49:47.446Z,3.22
2023-05-15T23:59:48.781Z,2.97
